Time;durP1;ratioP1;P1;durP2;ratioP2;P2;SDS_P1;SDS_P2;PMS_P1;PMS_P2;Temp;Humidity;BMP_temperature;BMP_pressure;BME280_temperature;BME280_humidity;BME280_pressure;Samples;Min_cycle;Max_cycle;Signal;HPM_P1;HPM_P2
2023/08/08 00:01:16;;;;;;;25.40;23.07;;;;;;;;;;5075916;28;20857;-87
2023/08/08 00:03:43;;;;;;;27.50;25.10;;;;;;;;;;5075917;28;20438;-88
2023/08/08 00:06:10;;;;;;;25.07;23.37;;;;;;;;;;5075951;28;20481;-88
2023/08/08 00:08:37;;;;;;;28.73;26.17;;;;;;;;;;5076481;28;20442;-87
2023/08/08 00:11:04;;;;;;;26.50;24.20;;;;;;;;;;5076101;28;20469;-88
2023/08/08 00:13:33;;;;;;;25.57;23.80;;;;;;;;;;5075719;28;20865;-88
2023/08/08 00:16:00;;;;;;;26.90;24.63;;;;;;;;;;5076110;28;21243;-88
2023/08/08 00:18:27;;;;;;;26.43;24.53;;;;;;;;;;5076111;28;20428;-88
2023/08/08 00:20:54;;;;;;;27.47;25.47;;;;;;;;;;5075827;28;20438;-87
2023/08/08 00:23:21;;;;;;;27.77;25.63;;;;;;;;;;5075718;28;20485;-87
2023/08/08 00:25:50;;;;;;;25.67;23.57;;;;;;;;;;5075881;28;20481;-87
2023/08/08 00:28:18;;;;;;;26.60;24.50;;;;;;;;;;5076189;28;20461;-88
2023/08/08 00:30:46;;;;;;;26.47;24.40;;;;;;;;;;5076140;28;20446;-87
2023/08/08 00:33:13;;;;;;;25.60;23.57;;;;;;;;;;5074918;28;20469;-88
2023/08/08 00:35:40;;;;;;;24.47;22.97;;;;;;;;;;5075835;28;20464;-88
2023/08/08 00:38:07;;;;;;;24.13;22.53;;;;;;;;;;5075647;28;20445;-87
2023/08/08 00:40:35;;;;;;;25.97;23.77;;;;;;;;;;5076290;28;20454;-88
2023/08/08 00:43:02;;;;;;;24.67;22.83;;;;;;;;;;5074834;28;20580;-87
2023/08/08 00:45:29;;;;;;;25.47;23.67;;;;;;;;;;5075926;28;20560;-87
2023/08/08 00:47:58;;;;;;;24.33;22.73;;;;;;;;;;5075501;28;20440;-87
2023/08/08 00:50:25;;;;;;;24.73;22.70;;;;;;;;;;5075918;28;20442;-87
2023/08/08 00:52:52;;;;;;;24.60;22.87;;;;;;;;;;5075012;28;20465;-87
2023/08/08 00:55:19;;;;;;;24.53;22.73;;;;;;;;;;5075955;28;20492;-87
2023/08/08 00:57:47;;;;;;;24.13;22.53;;;;;;;;;;5076127;28;20446;-87
2023/08/08 01:00:14;;;;;;;25.30;23.63;;;;;;;;;;5075994;28;20464;-87
2023/08/08 01:02:41;;;;;;;25.70;23.67;;;;;;;;;;5075235;28;20530;-87
2023/08/08 01:05:10;;;;;;;26.07;24.17;;;;;;;;;;5075246;28;20462;-88
2023/08/08 01:07:40;;;;;;;25.83;23.80;;;;;;;;;;5075320;28;20453;-88
2023/08/08 01:10:10;;;;;;;25.17;23.10;;;;;;;;;;5074986;28;20445;-88
2023/08/08 01:12:37;;;;;;;23.63;21.93;;;;;;;;;;5075416;28;20416;-87
2023/08/08 01:15:06;;;;;;;24.23;22.70;;;;;;;;;;5074228;28;20994;-88
2023/08/08 01:17:34;;;;;;;24.60;22.83;;;;;;;;;;5075073;28;20438;-87
2023/08/08 01:20:01;;;;;;;22.87;21.50;;;;;;;;;;5075133;28;20441;-88
2023/08/08 01:22:34;;;;;;;24.10;22.50;;;;;;;;;;5074617;28;20450;-88
2023/08/08 01:25:03;;;;;;;24.97;23.07;;;;;;;;;;5073961;28;20481;-88
2023/08/08 01:27:30;;;;;;;23.63;21.80;;;;;;;;;;5074492;28;20512;-88
2023/08/08 01:29:57;;;;;;;23.37;21.87;;;;;;;;;;5074965;28;20441;-88
2023/08/08 01:32:24;;;;;;;23.23;21.43;;;;;;;;;;5075258;28;20927;-87
2023/08/08 01:34:52;;;;;;;24.17;22.37;;;;;;;;;;5074212;28;20481;-88
2023/08/08 01:37:19;;;;;;;23.40;21.90;;;;;;;;;;5074775;28;20442;-88
2023/08/08 01:39:47;;;;;;;22.43;20.47;;;;;;;;;;5075257;28;20457;-88
2023/08/08 01:42:17;;;;;;;23.40;21.90;;;;;;;;;;5075188;28;20417;-86
2023/08/08 01:44:44;;;;;;;24.00;22.20;;;;;;;;;;5073685;28;20458;-87
2023/08/08 01:47:11;;;;;;;24.30;22.80;;;;;;;;;;5074640;28;20480;-88
2023/08/08 01:49:38;;;;;;;23.53;22.00;;;;;;;;;;5074999;28;20449;-89
2023/08/08 01:52:06;;;;;;;22.07;20.47;;;;;;;;;;5074676;28;20837;-88
2023/08/08 01:54:33;;;;;;;22.07;20.67;;;;;;;;;;5074065;28;20951;-87
2023/08/08 01:57:00;;;;;;;22.00;20.60;;;;;;;;;;5075545;28;20442;-87
2023/08/08 01:59:29;;;;;;;22.70;21.10;;;;;;;;;;5074965;28;20441;-88
2023/08/08 02:01:56;;;;;;;23.40;21.30;;;;;;;;;;5075121;28;20426;-87
2023/08/08 02:04:23;;;;;;;23.93;21.93;;;;;;;;;;5074310;28;20445;-86
2023/08/08 02:06:50;;;;;;;19.83;18.63;;;;;;;;;;5074672;28;20497;-87
2023/08/08 02:09:17;;;;;;;19.13;18.03;;;;;;;;;;5074652;28;20450;-86
2023/08/08 02:11:44;;;;;;;21.40;19.80;;;;;;;;;;5074560;28;20777;-86
2023/08/08 02:14:11;;;;;;;21.27;19.97;;;;;;;;;;5073959;28;20445;-87
2023/08/08 02:16:42;;;;;;;20.57;19.37;;;;;;;;;;5073940;28;20478;-87
2023/08/08 02:19:09;;;;;;;20.40;19.20;;;;;;;;;;5074827;28;20489;-87
2023/08/08 02:21:36;;;;;;;19.67;18.57;;;;;;;;;;5074403;28;21126;-86
2023/08/08 02:24:03;;;;;;;19.53;18.53;;;;;;;;;;5073758;28;20453;-87
2023/08/08 02:26:31;;;;;;;19.87;18.77;;;;;;;;;;5073799;28;20493;-87
2023/08/08 02:28:58;;;;;;;19.13;17.83;;;;;;;;;;5074836;28;20430;-87
2023/08/08 02:31:25;;;;;;;20.13;18.93;;;;;;;;;;5074334;28;20434;-87
2023/08/08 02:33:54;;;;;;;19.90;18.80;;;;;;;;;;5073948;28;20813;-87
2023/08/08 02:36:21;;;;;;;19.80;18.60;;;;;;;;;;5073450;28;20489;-87
2023/08/08 02:38:49;;;;;;;19.20;18.00;;;;;;;;;;5074797;28;20453;-87
2023/08/08 02:41:16;;;;;;;20.60;19.40;;;;;;;;;;5074392;28;20811;-87
2023/08/08 02:43:43;;;;;;;21.10;19.80;;;;;;;;;;5074195;28;20412;-87
2023/08/08 02:46:10;;;;;;;19.47;18.43;;;;;;;;;;5074293;28;20893;-88
2023/08/08 02:48:37;;;;;;;20.30;19.20;;;;;;;;;;5074596;28;20445;-87
2023/08/08 02:51:06;;;;;;;20.53;19.33;;;;;;;;;;5074563;28;20452;-87
2023/08/08 02:53:33;;;;;;;19.33;18.40;;;;;;;;;;5074141;28;20441;-87
2023/08/08 02:56:00;;;;;;;19.63;18.57;;;;;;;;;;5073889;28;20465;-87
2023/08/08 02:58:27;;;;;;;20.67;19.40;;;;;;;;;;5074548;28;20437;-87
2023/08/08 03:00:54;;;;;;;20.40;19.20;;;;;;;;;;5074254;28;20449;-87
2023/08/08 03:03:21;;;;;;;20.77;19.57;;;;;;;;;;5074259;28;20421;-87
2023/08/08 03:05:48;;;;;;;20.37;19.27;;;;;;;;;;5074335;28;20454;-86
2023/08/08 03:08:16;;;;;;;21.07;19.97;;;;;;;;;;5074263;28;20493;-87
2023/08/08 03:10:44;;;;;;;21.47;20.17;;;;;;;;;;5074183;28;20450;-87
2023/08/08 03:13:11;;;;;;;21.33;20.13;;;;;;;;;;5073763;28;20436;-86
2023/08/08 03:15:38;;;;;;;21.03;19.93;;;;;;;;;;5073981;28;20458;-88
2023/08/08 03:18:05;;;;;;;21.77;20.47;;;;;;;;;;5074071;28;20967;-88
2023/08/08 03:20:33;;;;;;;21.07;19.87;;;;;;;;;;5074339;28;20446;-87
2023/08/08 03:23:00;;;;;;;21.67;20.57;;;;;;;;;;5073644;28;20465;-87
2023/08/08 03:25:28;;;;;;;22.00;20.50;;;;;;;;;;5073898;28;20469;-87
2023/08/08 03:27:55;;;;;;;22.00;20.80;;;;;;;;;;5073841;28;20494;-87
2023/08/08 03:30:22;;;;;;;21.93;20.80;;;;;;;;;;5074350;28;20416;-87
2023/08/08 03:32:49;;;;;;;23.00;21.60;;;;;;;;;;5074275;28;20443;-88
2023/08/08 03:35:16;;;;;;;22.00;20.70;;;;;;;;;;5077969;28;20465;-87
2023/08/08 03:37:44;;;;;;;22.73;21.00;;;;;;;;;;5077790;28;20438;-87
2023/08/08 03:40:12;;;;;;;22.50;21.30;;;;;;;;;;5077975;28;20464;-87
2023/08/08 03:42:42;;;;;;;23.20;21.80;;;;;;;;;;5077134;28;20456;-87
2023/08/08 03:45:10;;;;;;;23.77;22.10;;;;;;;;;;5078059;28;20548;-87
2023/08/08 03:47:37;;;;;;;22.70;21.40;;;;;;;;;;5077684;28;20459;-87
2023/08/08 03:50:04;;;;;;;21.50;20.40;;;;;;;;;;5077957;28;20457;-86
2023/08/08 03:52:34;;;;;;;21.70;20.50;;;;;;;;;;5077705;28;20449;-87
2023/08/08 03:55:01;;;;;;;22.80;21.40;;;;;;;;;;5077393;28;20465;-87
2023/08/08 03:57:28;;;;;;;22.07;20.87;;;;;;;;;;5077450;28;20442;-87
2023/08/08 03:59:57;;;;;;;21.90;20.70;;;;;;;;;;5077571;28;20456;-87
2023/08/08 04:02:24;;;;;;;21.60;20.40;;;;;;;;;;5077385;28;20476;-87
2023/08/08 04:04:51;;;;;;;24.97;23.47;;;;;;;;;;5076879;28;20462;-88
2023/08/08 04:07:25;;;;;;;24.37;22.87;;;;;;;;;;5077246;28;21013;-88
2023/08/08 04:09:52;;;;;;;22.30;21.10;;;;;;;;;;5077185;28;20891;-88
2023/08/08 04:12:19;;;;;;;24.33;22.97;;;;;;;;;;5076690;28;20441;-87
2023/08/08 04:14:46;;;;;;;24.30;22.90;;;;;;;;;;5076786;28;20469;-87
2023/08/08 04:17:14;;;;;;;23.93;22.43;;;;;;;;;;5077403;28;20438;-87
2023/08/08 04:19:41;;;;;;;24.40;23.00;;;;;;;;;;5077457;28;20857;-87
2023/08/08 04:22:08;;;;;;;24.10;22.70;;;;;;;;;;5077275;28;20442;-88
2023/08/08 04:24:35;;;;;;;22.77;21.20;;;;;;;;;;5076580;28;20416;-87
2023/08/08 04:27:03;;;;;;;23.17;21.87;;;;;;;;;;5076846;28;20841;-86
2023/08/08 04:29:30;;;;;;;23.37;21.97;;;;;;;;;;5077141;28;20424;-86
2023/08/08 04:31:57;;;;;;;25.80;23.73;;;;;;;;;;5076603;28;20787;-82
2023/08/08 04:34:26;;;;;;;25.50;23.80;;;;;;;;;;5075753;28;20932;-81
2023/08/08 04:36:53;;;;;;;26.40;24.53;;;;;;;;;;5076385;28;20473;-82
2023/08/08 04:39:20;;;;;;;25.93;23.70;;;;;;;;;;5076435;28;20424;-83
2023/08/08 04:41:47;;;;;;;24.80;23.37;;;;;;;;;;5075611;28;20954;-82
2023/08/08 04:44:14;;;;;;;26.53;24.57;;;;;;;;;;5075325;28;20437;-82
2023/08/08 04:46:41;;;;;;;25.97;24.03;;;;;;;;;;5076233;28;20492;-82
2023/08/08 04:49:08;;;;;;;25.43;23.60;;;;;;;;;;5076197;28;20800;-82
2023/08/08 04:51:37;;;;;;;26.97;25.00;;;;;;;;;;5076764;28;20823;-83
2023/08/08 04:54:04;;;;;;;26.03;24.23;;;;;;;;;;5075396;28;20934;-82
2023/08/08 04:56:31;;;;;;;25.43;23.73;;;;;;;;;;5076220;28;20469;-81
2023/08/08 04:58:58;;;;;;;25.53;23.30;;;;;;;;;;5076275;28;20462;-83
2023/08/08 05:01:25;;;;;;;26.13;24.20;;;;;;;;;;5079769;28;20526;-81
2023/08/08 05:03:52;;;;;;;27.10;25.10;;;;;;;;;;5095550;28;20452;-82
2023/08/08 05:06:19;;;;;;;24.63;22.60;;;;;;;;;;5095935;28;20468;-82
2023/08/08 05:08:48;;;;;;;25.80;23.80;;;;;;;;;;5095964;28;20871;-83
2023/08/08 05:11:15;;;;;;;25.70;23.53;;;;;;;;;;5095879;28;20423;-82
2023/08/08 05:13:43;;;;;;;22.57;20.87;;;;;;;;;;5096246;28;20435;-82
2023/08/08 05:16:10;;;;;;;23.30;21.70;;;;;;;;;;5095953;28;20484;-82
2023/08/08 05:18:37;;;;;;;25.73;23.60;;;;;;;;;;5095579;28;20419;-82
2023/08/08 05:21:04;;;;;;;24.53;22.87;;;;;;;;;;5095854;28;20472;-81
2023/08/08 05:23:31;;;;;;;24.30;22.73;;;;;;;;;;5094770;28;20913;-82
2023/08/08 05:25:59;;;;;;;23.97;22.43;;;;;;;;;;5095621;28;20468;-82
2023/08/08 05:28:27;;;;;;;23.60;21.87;;;;;;;;;;5096186;28;20511;-82
2023/08/08 05:30:54;;;;;;;23.70;21.90;;;;;;;;;;5095562;28;20454;-82
2023/08/08 05:33:21;;;;;;;24.10;22.40;;;;;;;;;;5094918;28;20826;-83
2023/08/08 05:35:48;;;;;;;22.93;20.97;;;;;;;;;;5094928;28;20499;-83
2023/08/08 05:38:15;;;;;;;24.70;22.67;;;;;;;;;;5095377;28;20491;-83
2023/08/08 05:40:42;;;;;;;23.90;22.30;;;;;;;;;;5095931;28;20441;-82
2023/08/08 05:43:16;;;;;;;23.53;21.70;;;;;;;;;;5094565;28;20448;-83
2023/08/08 05:45:43;;;;;;;24.57;22.10;;;;;;;;;;5095108;28;20479;-82
2023/08/08 05:48:12;;;;;;;26.13;23.73;;;;;;;;;;5093367;28;20492;-82
2023/08/08 05:50:39;;;;;;;25.10;23.30;;;;;;;;;;5095150;28;20501;-81
2023/08/08 05:53:06;;;;;;;25.20;23.33;;;;;;;;;;5093904;28;20465;-81
2023/08/08 05:55:33;;;;;;;26.13;23.80;;;;;;;;;;5094806;28;20465;-82
2023/08/08 05:58:00;;;;;;;24.67;22.73;;;;;;;;;;5094141;28;20967;-83
2023/08/08 06:00:28;;;;;;;21.23;19.83;;;;;;;;;;5095334;28;20433;-83
2023/08/08 06:02:55;;;;;;;25.30;23.60;;;;;;;;;;5095045;28;20954;-82
2023/08/08 06:05:24;;;;;;;24.70;22.90;;;;;;;;;;5095098;28;20469;-82
2023/08/08 06:07:51;;;;;;;26.07;24.20;;;;;;;;;;5094850;28;20514;-83
2023/08/08 06:10:18;;;;;;;27.47;23.03;;;;;;;;;;5094903;28;20447;-82
2023/08/08 06:12:45;;;;;;;24.23;22.50;;;;;;;;;;5095563;28;20445;-83
2023/08/08 06:15:12;;;;;;;24.43;22.63;;;;;;;;;;5096736;28;20442;-84
2023/08/08 06:17:41;;;;;;;26.97;25.00;;;;;;;;;;5095272;28;20532;-80
2023/08/08 06:20:09;;;;;;;25.17;23.37;;;;;;;;;;5095413;28;20444;-82
2023/08/08 06:22:36;;;;;;;23.60;21.90;;;;;;;;;;5095115;28;20468;-82
2023/08/08 06:25:03;;;;;;;24.27;22.50;;;;;;;;;;5095252;28;20461;-82
2023/08/08 06:27:31;;;;;;;24.50;22.50;;;;;;;;;;5095396;28;20497;-82
2023/08/08 06:29:58;;;;;;;21.73;20.13;;;;;;;;;;5095490;28;20455;-83
2023/08/08 06:32:25;;;;;;;26.13;24.17;;;;;;;;;;5095122;28;20462;-83
2023/08/08 06:34:54;;;;;;;26.23;23.90;;;;;;;;;;5093899;28;20492;-82
2023/08/08 06:37:22;;;;;;;26.50;24.40;;;;;;;;;;5094706;28;20445;-81
2023/08/08 06:39:50;;;;;;;26.43;24.63;;;;;;;;;;5095431;28;20452;-82
2023/08/08 06:42:17;;;;;;;26.90;24.90;;;;;;;;;;5095067;28;20483;-82
2023/08/08 06:44:44;;;;;;;29.63;26.97;;;;;;;;;;5094549;28;20953;-82
2023/08/08 06:47:11;;;;;;;29.00;26.60;;;;;;;;;;5095253;28;20440;-82
2023/08/08 06:49:38;;;;;;;27.87;25.87;;;;;;;;;;5094804;28;20468;-83
2023/08/08 06:52:07;;;;;;;29.77;27.43;;;;;;;;;;5094381;28;20751;-82
2023/08/08 06:54:34;;;;;;;32.37;29.57;;;;;;;;;;5093537;28;20501;-83
2023/08/08 06:57:04;;;;;;;29.63;26.80;;;;;;;;;;5094506;28;20437;-83
2023/08/08 06:59:31;;;;;;;30.60;28.10;;;;;;;;;;5094848;28;20515;-83
2023/08/08 07:01:58;;;;;;;30.13;27.73;;;;;;;;;;5094034;28;20456;-84
2023/08/08 07:04:25;;;;;;;30.60;27.83;;;;;;;;;;5094448;28;20413;-83
2023/08/08 07:06:52;;;;;;;32.73;29.70;;;;;;;;;;5094705;28;20469;-82
2023/08/08 07:09:21;;;;;;;32.83;30.17;;;;;;;;;;5098063;28;20821;-82
2023/08/08 07:11:48;;;;;;;35.63;32.70;;;;;;;;;;5098195;28;20514;-83
2023/08/08 07:14:15;;;;;;;30.53;28.23;;;;;;;;;;5097586;28;21003;-83
2023/08/08 07:16:42;;;;;;;32.20;29.60;;;;;;;;;;5098094;28;20456;-82
2023/08/08 07:19:09;;;;;;;34.80;31.57;;;;;;;;;;5098076;28;20440;-82
2023/08/08 07:21:36;;;;;;;36.33;32.93;;;;;;;;;;5098079;28;20444;-82
2023/08/08 07:24:03;;;;;;;35.10;32.10;;;;;;;;;;5097398;28;20431;-83
2023/08/08 07:26:31;;;;;;;35.20;32.27;;;;;;;;;;5097177;28;20491;-83
2023/08/08 07:28:59;;;;;;;33.73;31.03;;;;;;;;;;5097561;28;20483;-84
2023/08/08 07:31:26;;;;;;;33.60;30.90;;;;;;;;;;5098776;28;20441;-83
2023/08/08 07:33:53;;;;;;;33.80;31.27;;;;;;;;;;5097764;28;20444;-82
2023/08/08 07:36:20;;;;;;;34.83;31.57;;;;;;;;;;5097520;28;20542;-83
2023/08/08 07:38:47;;;;;;;32.70;30.23;;;;;;;;;;5097776;28;20449;-82
2023/08/08 07:41:14;;;;;;;34.53;31.13;;;;;;;;;;5097013;28;20454;-82
2023/08/08 07:43:42;;;;;;;32.77;30.10;;;;;;;;;;5096861;28;20460;-82
2023/08/08 07:46:09;;;;;;;33.80;30.73;;;;;;;;;;5096585;28;20451;-82
2023/08/08 07:48:36;;;;;;;32.30;29.43;;;;;;;;;;5096868;28;20491;-82
2023/08/08 07:51:03;;;;;;;34.00;31.20;;;;;;;;;;5097418;28;20452;-82
2023/08/08 07:53:32;;;;;;;34.07;31.07;;;;;;;;;;5096163;28;20423;-82
2023/08/08 07:55:59;;;;;;;35.27;32.57;;;;;;;;;;5097094;28;20467;-82
2023/08/08 07:58:27;;;;;;;36.23;33.23;;;;;;;;;;5097554;28;20441;-83
2023/08/08 08:00:55;;;;;;;35.77;32.57;;;;;;;;;;5097681;28;20448;-83
2023/08/08 08:03:22;;;;;;;36.63;33.47;;;;;;;;;;5095859;28;20456;-82
2023/08/08 08:05:49;;;;;;;34.83;31.60;;;;;;;;;;5096987;28;20465;-83
2023/08/08 08:08:16;;;;;;;35.50;32.60;;;;;;;;;;5098037;28;20476;-81
2023/08/08 08:10:43;;;;;;;35.97;33.13;;;;;;;;;;5097465;28;20455;-82
2023/08/08 08:13:11;;;;;;;32.00;29.30;;;;;;;;;;5096647;28;20795;-83
2023/08/08 08:15:38;;;;;;;38.47;35.10;;;;;;;;;;5097190;28;20591;-80
2023/08/08 08:18:07;;;;;;;34.50;31.40;;;;;;;;;;5098609;28;20451;-84
2023/08/08 08:20:34;;;;;;;32.93;30.13;;;;;;;;;;5096691;28;20453;-82
2023/08/08 08:23:01;;;;;;;29.13;26.67;;;;;;;;;;5097345;28;20484;-82
2023/08/08 08:25:28;;;;;;;34.40;31.63;;;;;;;;;;5092807;28;20474;-86
2023/08/08 08:27:55;;;;;;;32.00;29.13;;;;;;;;;;5096497;28;20495;-83
2023/08/08 08:30:25;;;;;;;29.37;27.10;;;;;;;;;;5097798;28;20444;-86
2023/08/08 08:32:52;;;;;;;35.57;32.33;;;;;;;;;;5096966;28;20441;-90
2023/08/08 08:35:21;;;;;;;32.33;29.43;;;;;;;;;;5096437;28;20510;-89
2023/08/08 08:37:48;;;;;;;32.80;30.23;;;;;;;;;;5096960;28;20453;-83
2023/08/08 08:40:15;;;;;;;28.53;26.13;;;;;;;;;;5096766;28;20425;-83
2023/08/08 08:42:42;;;;;;;33.20;30.30;;;;;;;;;;5096385;28;20429;-80
2023/08/08 08:45:10;;;;;;;32.70;29.60;;;;;;;;;;5096027;28;20491;-81
2023/08/08 08:47:38;;;;;;;31.67;29.37;;;;;;;;;;5095409;28;20523;-83
2023/08/08 08:50:06;;;;;;;32.73;30.10;;;;;;;;;;5097486;28;20555;-82
2023/08/08 08:52:34;;;;;;;28.30;26.17;;;;;;;;;;5098314;28;20453;-81
2023/08/08 08:55:02;;;;;;;33.57;30.73;;;;;;;;;;5096133;28;20467;-80
2023/08/08 08:57:37;;;;;;;34.27;31.37;;;;;;;;;;5096859;28;20450;-81
2023/08/08 09:00:05;;;;;;;36.60;33.80;;;;;;;;;;5095201;28;20475;-79
2023/08/08 09:02:32;;;;;;;35.20;31.67;;;;;;;;;;5086307;28;20941;-81
2023/08/08 09:05:01;;;;;;;34.60;31.10;;;;;;;;;;5095393;28;20574;-81
2023/08/08 09:07:30;;;;;;;33.30;30.70;;;;;;;;;;5095757;28;20490;-80
2023/08/08 09:09:59;;;;;;;34.67;31.80;;;;;;;;;;5095322;28;20919;-80
2023/08/08 09:12:26;;;;;;;33.30;30.43;;;;;;;;;;5096350;28;20452;-81
2023/08/08 09:14:57;;;;;;;29.40;26.83;;;;;;;;;;5095442;28;20464;-81
2023/08/08 09:17:26;;;;;;;34.60;31.80;;;;;;;;;;5095459;28;20480;-79
2023/08/08 09:19:54;;;;;;;38.20;34.40;;;;;;;;;;5078350;28;20488;-80
2023/08/08 09:22:23;;;;;;;35.37;32.37;;;;;;;;;;5090841;28;20493;-80
2023/08/08 09:24:50;;;;;;;35.27;32.47;;;;;;;;;;5094674;28;20449;-80
2023/08/08 09:27:19;;;;;;;30.93;28.43;;;;;;;;;;5095108;28;20923;-82
2023/08/08 09:29:46;;;;;;;25.10;23.20;;;;;;;;;;5095332;28;20488;-80
2023/08/08 09:32:13;;;;;;;28.57;26.20;;;;;;;;;;5092701;28;20476;-79
2023/08/08 09:34:42;;;;;;;28.93;26.83;;;;;;;;;;5097055;28;20464;-80
2023/08/08 09:37:10;;;;;;;28.47;26.07;;;;;;;;;;5094661;28;20455;-81
2023/08/08 09:39:37;;;;;;;31.17;28.80;;;;;;;;;;5097573;28;20455;-81
2023/08/08 09:42:04;;;;;;;27.37;25.30;;;;;;;;;;5097300;28;20976;-83
2023/08/08 09:44:35;;;;;;;29.13;26.73;;;;;;;;;;5094956;28;20488;-82
2023/08/08 09:47:02;;;;;;;28.10;26.20;;;;;;;;;;5096444;28;20429;-81
2023/08/08 09:49:31;;;;;;;27.10;25.30;;;;;;;;;;5095714;28;20481;-81
2023/08/08 09:51:59;;;;;;;26.33;24.53;;;;;;;;;;5096491;28;20514;-81
2023/08/08 09:54:27;;;;;;;24.77;22.97;;;;;;;;;;5094262;28;20469;-80
2023/08/08 09:56:55;;;;;;;23.80;22.30;;;;;;;;;;5095195;28;20480;-79
2023/08/08 09:59:22;;;;;;;23.43;22.10;;;;;;;;;;5096581;28;20441;-81
2023/08/08 10:01:50;;;;;;;25.53;23.70;;;;;;;;;;5096418;28;20445;-80
2023/08/08 10:04:18;;;;;;;24.00;22.47;;;;;;;;;;5096335;28;20445;-81
2023/08/08 10:06:45;;;;;;;24.30;22.60;;;;;;;;;;5094475;28;20512;-80
2023/08/08 10:09:13;;;;;;;25.30;22.80;;;;;;;;;;5096139;28;20457;-81
2023/08/08 10:11:42;;;;;;;23.23;21.63;;;;;;;;;;5096057;28;20445;-79
2023/08/08 10:14:11;;;;;;;22.57;21.17;;;;;;;;;;5095759;28;20445;-81
2023/08/08 10:16:38;;;;;;;20.23;19.13;;;;;;;;;;5096195;28;20468;-80
2023/08/08 10:19:06;;;;;;;20.97;19.77;;;;;;;;;;5096511;28;20444;-79
2023/08/08 10:21:34;;;;;;;21.93;20.33;;;;;;;;;;5095936;28;20456;-81
2023/08/08 10:24:06;;;;;;;21.20;19.80;;;;;;;;;;5095204;28;20821;-81
2023/08/08 10:26:33;;;;;;;21.03;19.77;;;;;;;;;;5095276;28;20481;-80
2023/08/08 10:29:01;;;;;;;20.93;19.73;;;;;;;;;;5095270;28;20496;-79
2023/08/08 10:31:29;;;;;;;21.63;20.23;;;;;;;;;;5096116;28;20810;-81
2023/08/08 10:34:09;;;;;;;21.03;19.63;;;;;;;;;;5095763;28;20452;-80
2023/08/08 10:36:46;;;;;;;21.33;19.70;;;;;;;;;;5095876;28;20954;-80
2023/08/08 10:39:16;;;;;;;22.37;20.90;;;;;;;;;;5095458;28;20464;-81
2023/08/08 10:41:46;;;;;;;21.53;20.30;;;;;;;;;;5095705;28;20513;-78
2023/08/08 10:44:13;;;;;;;21.67;19.93;;;;;;;;;;5099779;28;20531;-82
2023/08/08 10:46:42;;;;;;;21.27;20.07;;;;;;;;;;5101666;28;20858;-83
2023/08/08 10:49:14;;;;;;;20.70;19.20;;;;;;;;;;5101008;28;20481;-78
2023/08/08 10:51:43;;;;;;;20.93;19.73;;;;;;;;;;5099383;28;20468;-80
2023/08/08 10:54:18;;;;;;;21.43;20.13;;;;;;;;;;5098566;28;20498;-82
2023/08/08 10:56:52;;;;;;;22.20;20.90;;;;;;;;;;5099756;28;20456;-82
2023/08/08 10:59:21;;;;;;;21.07;19.90;;;;;;;;;;5100120;28;20449;-81
2023/08/08 11:01:49;;;;;;;22.77;21.47;;;;;;;;;;5099834;28;20467;-78
2023/08/08 11:04:19;;;;;;;21.63;20.43;;;;;;;;;;5098876;28;20475;-81
2023/08/08 11:06:49;;;;;;;22.90;21.30;;;;;;;;;;5099578;28;20563;-80
2023/08/08 11:09:16;;;;;;;21.40;20.20;;;;;;;;;;5100005;28;20471;-81
2023/08/08 11:11:44;;;;;;;22.40;20.90;;;;;;;;;;5099337;28;20444;-81
2023/08/08 11:14:12;;;;;;;22.00;20.80;;;;;;;;;;5099641;28;20456;-80
2023/08/08 11:16:39;;;;;;;22.70;21.40;;;;;;;;;;5099210;28;20477;-80
2023/08/08 11:19:07;;;;;;;21.53;20.23;;;;;;;;;;5099942;28;20441;-81
2023/08/08 11:21:39;;;;;;;20.60;19.50;;;;;;;;;;5098770;28;20448;-81
2023/08/08 11:24:07;;;;;;;22.67;20.97;;;;;;;;;;5098689;28;20514;-81
2023/08/08 11:26:34;;;;;;;20.73;19.60;;;;;;;;;;5098615;28;20520;-81
2023/08/08 11:29:01;;;;;;;22.83;21.40;;;;;;;;;;5098917;28;20491;-81
2023/08/08 11:31:28;;;;;;;22.37;21.07;;;;;;;;;;5099218;28;20449;-81
2023/08/08 11:33:56;;;;;;;22.30;20.90;;;;;;;;;;5098223;28;20461;-82
2023/08/08 11:36:23;;;;;;;21.93;20.43;;;;;;;;;;5099346;28;20460;-82
2023/08/08 11:38:52;;;;;;;21.93;20.63;;;;;;;;;;5099512;28;20503;-81
2023/08/08 11:41:20;;;;;;;23.20;21.67;;;;;;;;;;5099513;28;20531;-80
2023/08/08 11:43:47;;;;;;;21.60;20.17;;;;;;;;;;5098741;28;20452;-81
2023/08/08 11:46:15;;;;;;;21.80;20.50;;;;;;;;;;5098879;28;20468;-82
2023/08/08 11:48:42;;;;;;;22.07;20.67;;;;;;;;;;5099704;28;20449;-79
2023/08/08 11:51:10;;;;;;;21.70;20.27;;;;;;;;;;5097803;28;20854;-80
2023/08/08 11:53:37;;;;;;;23.27;21.77;;;;;;;;;;5098023;28;20476;-81
2023/08/08 11:56:06;;;;;;;21.07;19.87;;;;;;;;;;5098976;28;20468;-81
2023/08/08 11:58:33;;;;;;;21.67;20.47;;;;;;;;;;5099443;28;20451;-80
2023/08/08 12:01:00;;;;;;;20.80;19.60;;;;;;;;;;5099127;28;20445;-80
2023/08/08 12:03:28;;;;;;;21.90;20.60;;;;;;;;;;5098141;28;20495;-80
2023/08/08 12:05:55;;;;;;;22.00;20.70;;;;;;;;;;5098975;28;20469;-79
2023/08/08 12:08:23;;;;;;;20.20;19.00;;;;;;;;;;5099103;28;20445;-81
2023/08/08 12:10:52;;;;;;;22.07;20.77;;;;;;;;;;5098356;28;20480;-79
2023/08/08 12:13:23;;;;;;;21.93;20.63;;;;;;;;;;5098485;28;20869;-80
2023/08/08 12:15:50;;;;;;;21.33;19.93;;;;;;;;;;5098893;28;20484;-80
2023/08/08 12:18:18;;;;;;;21.77;20.47;;;;;;;;;;5099121;28;20441;-79
2023/08/08 12:20:45;;;;;;;21.97;20.77;;;;;;;;;;5097918;28;20464;-80
2023/08/08 12:23:12;;;;;;;21.33;20.17;;;;;;;;;;5095272;28;20867;-82
2023/08/08 12:25:39;;;;;;;22.17;20.87;;;;;;;;;;5098859;28;20491;-85
2023/08/08 12:28:07;;;;;;;22.63;21.33;;;;;;;;;;5098627;28;20453;-82
2023/08/08 12:30:35;;;;;;;23.90;22.50;;;;;;;;;;5100124;28;20476;-86
2023/08/08 12:33:02;;;;;;;22.87;21.57;;;;;;;;;;5099598;28;20440;-82
2023/08/08 12:35:29;;;;;;;22.40;21.10;;;;;;;;;;5099799;28;20461;-82
2023/08/08 12:37:57;;;;;;;22.00;20.47;;;;;;;;;;5098927;28;20450;-82
2023/08/08 12:40:25;;;;;;;22.20;20.90;;;;;;;;;;5099003;28;20449;-83
2023/08/08 12:42:52;;;;;;;22.90;21.30;;;;;;;;;;5098515;28;20498;-80
2023/08/08 12:45:19;;;;;;;21.87;20.57;;;;;;;;;;5098045;28;20469;-82
2023/08/08 12:47:47;;;;;;;22.57;21.10;;;;;;;;;;5098099;28;20449;-82
2023/08/08 12:50:15;;;;;;;21.73;20.43;;;;;;;;;;5098810;28;20484;-82
2023/08/08 12:52:42;;;;;;;22.43;21.03;;;;;;;;;;5098329;28;20441;-85
2023/08/08 12:55:11;;;;;;;23.50;21.73;;;;;;;;;;5098443;28;20451;-82
2023/08/08 12:57:40;;;;;;;22.00;20.70;;;;;;;;;;5096924;28;20451;-83
2023/08/08 13:00:08;;;;;;;22.83;21.43;;;;;;;;;;5098621;28;20427;-84
2023/08/08 13:02:35;;;;;;;23.30;21.80;;;;;;;;;;5097548;28;20424;-81
2023/08/08 13:05:04;;;;;;;23.70;22.20;;;;;;;;;;5097213;28;20473;-82
2023/08/08 13:07:31;;;;;;;22.53;21.07;;;;;;;;;;5097577;28;20449;-82
2023/08/08 13:09:58;;;;;;;23.97;22.57;;;;;;;;;;5097696;28;20452;-84
2023/08/08 13:12:25;;;;;;;23.07;21.77;;;;;;;;;;5096967;28;20452;-82
2023/08/08 13:14:52;;;;;;;21.47;20.07;;;;;;;;;;5095301;28;20447;-84
2023/08/08 13:17:19;;;;;;;22.30;21.00;;;;;;;;;;5098423;28;21143;-82
2023/08/08 13:19:46;;;;;;;21.17;19.87;;;;;;;;;;5098609;28;20423;-84
2023/08/08 13:22:15;;;;;;;21.13;19.83;;;;;;;;;;5098035;28;20449;-82
2023/08/08 13:24:42;;;;;;;22.53;21.00;;;;;;;;;;5098697;28;20433;-83
2023/08/08 13:27:09;;;;;;;21.93;20.53;;;;;;;;;;5098546;28;20876;-83
2023/08/08 13:29:36;;;;;;;22.40;21.00;;;;;;;;;;5099995;28;20431;-83
2023/08/08 13:32:03;;;;;;;22.50;21.10;;;;;;;;;;5099591;28;20429;-83
2023/08/08 13:34:30;;;;;;;23.03;21.53;;;;;;;;;;5099108;28;20465;-84
2023/08/08 13:36:57;;;;;;;23.30;21.90;;;;;;;;;;5097178;28;20880;-82
2023/08/08 13:39:26;;;;;;;22.00;20.80;;;;;;;;;;5096455;28;20883;-82
2023/08/08 13:41:53;;;;;;;22.47;21.17;;;;;;;;;;5096736;28;20428;-82
2023/08/08 13:44:20;;;;;;;22.60;21.00;;;;;;;;;;5095897;28;20428;-82
2023/08/08 13:46:47;;;;;;;23.00;21.40;;;;;;;;;;5096192;28;20436;-87
2023/08/08 13:49:14;;;;;;;22.10;20.60;;;;;;;;;;5097088;28;20504;-82
2023/08/08 13:51:41;;;;;;;23.53;22.10;;;;;;;;;;5096757;28;20471;-82
2023/08/08 13:54:08;;;;;;;21.60;20.40;;;;;;;;;;5097211;28;20452;-83
2023/08/08 13:56:36;;;;;;;23.00;21.57;;;;;;;;;;5097911;28;20465;-82
2023/08/08 13:59:04;;;;;;;23.07;21.27;;;;;;;;;;5097814;28;20445;-81
2023/08/08 14:01:31;;;;;;;21.73;20.43;;;;;;;;;;5097421;28;20444;-82
2023/08/08 14:03:58;;;;;;;23.70;21.73;;;;;;;;;;5096413;28;20902;-80
2023/08/08 14:06:25;;;;;;;23.40;21.80;;;;;;;;;;5097757;28;20465;-81
2023/08/08 14:08:53;;;;;;;23.37;21.67;;;;;;;;;;5097864;28;20448;-82
2023/08/08 14:11:20;;;;;;;22.70;21.30;;;;;;;;;;5097501;28;20527;-82
2023/08/08 14:13:48;;;;;;;22.37;20.97;;;;;;;;;;5096328;28;20539;-82
2023/08/08 14:16:15;;;;;;;22.20;20.80;;;;;;;;;;5096968;28;20472;-82
2023/08/08 14:18:42;;;;;;;22.47;21.07;;;;;;;;;;5096557;28;20520;-81